« 芝山2 成田国際空港 2017/10/26 thu | トップページ | 演習2 小松飛行場 2017/11/13 mon »

2017/11/14

演習1 小松飛行場 2017/11/13 mon

先週の金曜に大挙外来機が飛来して、ちょっとした祭り状態に。うわさやヒソヒソ情報が飛びかう中、公式な発表がないけれど、何かがありそうなので、小松偵察に

RJNK 122200Z 17003KT 9999 FEW060 03/02 Q1020

20171113_rjnk_100f2

F-2の支援飛行隊が総ぞろいです。

20171113_rjnk_101f15

地元部隊もこんなところにまで追い出され・・

20171113_rjnk_102f428841

42-8841 F-15J 306SQ R25

月曜だろう・・ 滑走路点検の日や・・ 聞いてナイヨー状態で天候偵察に・・

20171113_rjnk_103f728899

72-8899 F-15J 306SQ R26

20171113_rjnk_104fvc

男は黙って、放水!

20171113_rjnk_105ja337j

定期便は時間とおり、陽が柔らかい

20171113_rjnk_106ja337j

JAL182 RJNK-RJTT JA377J B737-846

20171113_rjnk_107ja62an

青組みさんは、出遅れ

20171113_rjnk_108ja62an

ANA752 RJNK-RJTT JA62AN B737-881

RJNK 122300Z VRB02KT 9999 FEW030 06/04 Q1020

20171113_rjnk_109ja13rj

泣き声がたくさん聞こえていますが、動きはありません

20171113_rjnk_110ja13rj

IBX62 RJNK-RJSS JA13RJ CRJ-702ER

20171113_rjnk_111f428841

#841 上空には大皿さんや子馬さんがいるようだ

20171113_rjnk_112f728899

#899

20171113_rjnk_113ja8986

JAL183 RJTT-RJNK JA8986 B767-346

20171113_rjnk_114f038504

8時40分過ぎ ショウが始まりました

20171113_rjnk_115f038504

先鋒は、動物

20171113_rjnk_116ja301k

ANA1232 RJFF-RJNK JA301K B737-54K

20171113_rjnk_117f038504

4機編隊がイントレイルでインターセクションデパーチャー

20171113_rjnk_118f038509

03-8504 F-2A 8SQ Lark15

20171113_rjnk_119f038509

03-8509 F-2A 8SQ L16

20171113_rjnk_120f038507

03-8507 F-2A 8SQ L17

20171113_rjnk_121f038503

03-8503 F-2A 8SQ L18

背後には、もう次のF2飛行隊がタクシー

20171113_rjnk_122f438526

次は、めんこ

20171113_rjnk_123f438526

テキパキと離陸点検が進みます

20171113_rjnk_124f4

表だけでなく、裏もよく見ておかないと。おじいさんたちが、準備中

RJNK 130000Z VRB02KT 9999 FEW030 BKN250 09/04 Q1020

20171113_rjnk_125f638537

影武者さんは、サウスから出撃

20171113_rjnk_126f438526

43-8526 F-2A 6SQ Jwell01

20171113_rjnk_127f538535

53-8535 F-2A 6SQ J02

20171113_rjnk_128f738542

73-8542 F-2A 6SQ J03

20171113_rjnk_129f938545

93-8545 F-2A 6SQ J04

20171113_rjnk_130f638537

3編隊目、武者さん

20171113_rjnk_131f928070

裏では、地元犬鷲さんも出撃

20171113_rjnk_132f638537

20171113_rjnk_133f638537

63-8537 F-2A 3SQ Mink01

20171113_rjnk_134f138513

13-8513 F-2A 3SQ M02

20171113_rjnk_135f138517

13-8517 F-2A 3SQ M03

20171113_rjnk_136f438128

43-8128 F-2B 3SQ M04

20171113_rjnk_137f128074

アグさんも参戦

20171113_rjnk_138f928070

92-8070 F-15DJ 306SQ R21

20171113_rjnk_139f228940

22-8940 F-15J 306SQ R22

20171113_rjnk_140f928091

92-8091 F-15DJ 306SQ R23

20171113_rjnk_141f928906

92-8906 F-15J 306SQ R24

20171113_rjnk_142f978426

おじいさん登場 ケロヨーン

20171113_rjnk_143f328819

32-8819 F-15J 303SQ J01

20171113_rjnk_144f828897

82-8897 F-15J 303SQ J02

20171113_rjnk_145f428833

42-8833 F-15J 303SQ J03

20171113_rjnk_146f328817

32-8817 F-15J 303SQ J04

20171113_rjnk_147f528088

アグさんも4機編隊で

20171113_rjnk_148f978427

おじいさん並びました

20171113_rjnk_149f528088

62-8088 F-15DJ AGR M11

20171113_rjnk_150f128074

12-8074 F-15DJ AGR M12

20171113_rjnk_151f528088

32-8081 F-15DJ AGR M13

20171113_rjnk_152f328083

32-8083 F-15DJ AGR M14

20171113_rjnk_153f978427

お爺さん達出撃

20171113_rjnk_154f978427

タクシーバックしてRWエンドまで行って180

20171113_rjnk_155f978426

ジャミングポッドを吊るしています。

20171113_rjnk_156ja9428

JA9428 AS305B NNK

20171113_rjnk_157f978427

97-8427 F-4EJk 301SQ Lager15

20171113_rjnk_158f978426

37-8426 F-4EJk 301SQ L16

20171113_rjnk_159f978423

次の編隊も

20171113_rjnk_160f178440

ぐるぐる廻って位置へ

20171113_rjnk_161f978423

97-8423 F-4EJk 301SQ L17

20171113_rjnk_162f178440

17-8440 F-4EJk 301SQ L18

20171113_rjnk_163f028916

はるばる那覇から両飛行隊が参加しています。

20171113_rjnk_164f028916

02-8916 F-15J 304SQ Jaido15

20171113_rjnk_165f428949

42-8949 F-15J 304SQ J16

20171113_rjnk_166f528954

52-8954 F-15J 304SQ J17

20171113_rjnk_167f928900

92-8900 F-15J 304SQ J18

教室の羆がまぎれていました。

20171113_rjnk_168f528951

海兵隊でもB-1でもありません・・

20171113_rjnk_169f528951

52-8951 F-15J 204SQ Lanser01

20171113_rjnk_170f128924

12-8924 F-15J 204SQ L02

20171113_rjnk_171f728962

72-8962 F-15J 204SQ L03

20171113_rjnk_172f928913

92-8913 F-15J 204SQ L04

20171113_rjnk_173ja301k

ANA1231 RJNK-RJFF JA301K B737-54K

20171113_rjnk_174t865761

86-5761 T-4 303SQ J36

トリのこちらは、ローカル ここまで1時間内に37機が上がりました。

20171113_rjnk_175ja757a

ANA751 RJTT-RJNK JA757A B777-381

20171113_rjnk_176ja757a

これにて、デッキを離脱してお迎えに向かいます。

その2につづく

|

« 芝山2 成田国際空港 2017/10/26 thu | トップページ | 演習2 小松飛行場 2017/11/13 mon »

小松飛行場」カテゴリの記事

コメント

コメントを書く



(ウェブ上には掲載しません)


コメントは記事投稿者が公開するまで表示されません。



トラックバック


この記事へのトラックバック一覧です: 演習1 小松飛行場 2017/11/13 mon:

« 芝山2 成田国際空港 2017/10/26 thu | トップページ | 演習2 小松飛行場 2017/11/13 mon »